createdAt,value
2022-12-12T00:09:30.751Z,0
2022-12-12T00:19:07.363Z,0
2022-12-12T00:28:43.978Z,0
2022-12-12T00:38:20.480Z,0
2022-12-12T00:47:57.132Z,0
2022-12-12T00:57:33.760Z,0
2022-12-12T01:07:10.240Z,0
2022-12-12T01:16:35.835Z,0
2022-12-12T01:26:12.466Z,0
2022-12-12T01:35:48.951Z,0
2022-12-12T01:45:25.413Z,0
2022-12-12T01:55:02.114Z,0
2022-12-12T02:04:09.758Z,0
2022-12-12T02:13:46.248Z,0
2022-12-12T02:23:22.447Z,0
2022-12-12T02:32:59.119Z,0
2022-12-12T02:42:35.742Z,0
2022-12-12T02:52:12.432Z,0
2022-12-12T03:01:49.186Z,0
2022-12-12T03:11:25.721Z,0
2022-12-12T03:21:04.020Z,0
2022-12-12T03:30:39.089Z,0
2022-12-12T03:40:15.532Z,0
2022-12-12T03:49:51.980Z,0
2022-12-12T03:59:28.149Z,0
2022-12-12T04:09:03.916Z,0
2022-12-12T04:18:39.835Z,0
2022-12-12T04:28:16.119Z,0
2022-12-12T04:37:52.226Z,0
2022-12-12T04:47:28.873Z,0
2022-12-12T04:57:04.674Z,0
2022-12-12T05:06:41.161Z,0
2022-12-12T05:16:17.485Z,0
2022-12-12T05:25:53.652Z,0
2022-12-12T05:35:30.152Z,0
2022-12-12T05:45:06.364Z,0
2022-12-12T05:54:43.102Z,0
2022-12-12T06:04:19.808Z,0
2022-12-12T06:13:56.438Z,0
2022-12-12T06:23:33.188Z,0
2022-12-12T06:33:09.714Z,0.83
2022-12-12T06:42:48.912Z,3.33
2022-12-12T06:52:22.755Z,13.33
2022-12-12T07:01:59.219Z,35.83
2022-12-12T07:11:36.002Z,85
2022-12-12T07:21:12.925Z,165
2022-12-12T07:30:49.934Z,283.33
2022-12-12T07:40:26.935Z,373.33
2022-12-12T07:50:03.421Z,390
2022-12-12T07:59:39.695Z,357.5
2022-12-12T08:09:16.237Z,411.67
2022-12-12T08:18:52.748Z,399.17
2022-12-12T08:28:29.792Z,579.17
2022-12-12T08:38:06.421Z,673.33
2022-12-12T08:47:43.291Z,753.33
2022-12-12T08:57:24.323Z,865.83
2022-12-12T09:06:57.324Z,1112.5
2022-12-12T09:16:34.333Z,1395.83
2022-12-12T09:26:11.751Z,1366.67
2022-12-12T09:35:48.970Z,1595.83
2022-12-12T09:45:28.389Z,1883.33
2022-12-12T09:55:03.638Z,1645.83
2022-12-12T10:04:40.341Z,1697.5
2022-12-12T10:14:16.586Z,1424.17
2022-12-12T10:23:53.664Z,1971.67
2022-12-12T10:33:30.993Z,1702.5
2022-12-12T10:43:07.490Z,1592.5
2022-12-12T10:52:44.589Z,1861.67
2022-12-12T11:02:22.244Z,2314.17
2022-12-12T11:12:02.026Z,2432.5
2022-12-12T11:21:37.776Z,2536.67
2022-12-12T11:31:15.405Z,3246.67
2022-12-12T11:40:52.753Z,3509.17
2022-12-12T11:50:30.847Z,5004.17
2022-12-12T12:00:09.144Z,5014.17
2022-12-12T12:09:46.363Z,5679.17
2022-12-12T12:19:24.691Z,5017.5
2022-12-12T12:29:00.548Z,3611.67
2022-12-12T12:38:38.252Z,3445
2022-12-12T12:48:13.472Z,3326.67
2022-12-12T12:57:50.510Z,3771.67
2022-12-12T13:07:27.610Z,3235.83
2022-12-12T13:17:03.867Z,3184.17
2022-12-12T13:26:41.095Z,4271.67
2022-12-12T13:36:19.637Z,4549.17
2022-12-12T13:45:58.898Z,7735.83
2022-12-12T13:55:32.677Z,10165.83
2022-12-12T14:05:12.128Z,3146.67
2022-12-12T14:14:45.309Z,2263.33
2022-12-12T14:24:20.278Z,1702.5
2022-12-12T14:33:55.353Z,1199.17
2022-12-12T14:43:32.730Z,840
2022-12-12T14:53:06.854Z,526.67
2022-12-12T15:02:42.384Z,291.67
2022-12-12T15:12:17.807Z,133.33
2022-12-12T15:21:53.577Z,44.17
2022-12-12T15:31:29.509Z,11.67
2022-12-12T15:41:09.711Z,2.5
2022-12-12T15:50:41.551Z,0.83
2022-12-12T16:00:17.989Z,0
2022-12-12T16:09:54.134Z,0
2022-12-12T16:19:30.139Z,0
2022-12-12T16:29:05.690Z,0
2022-12-12T16:38:41.278Z,0
2022-12-12T16:48:17.221Z,0
2022-12-12T16:57:52.149Z,0
2022-12-12T17:07:28.186Z,0
2022-12-12T17:17:04.166Z,0
2022-12-12T17:26:39.855Z,0
2022-12-12T17:36:15.112Z,0
2022-12-12T17:45:50.549Z,0
2022-12-12T17:55:51.355Z,0
2022-12-12T18:05:01.999Z,0
2022-12-12T18:14:37.562Z,0
2022-12-12T18:24:15.223Z,0
2022-12-12T18:33:49.321Z,0
2022-12-12T18:43:25.227Z,0
2022-12-12T18:53:00.717Z,0
2022-12-12T19:02:36.990Z,0
2022-12-12T19:12:12.584Z,0
2022-12-12T19:21:47.749Z,0
2022-12-12T19:31:23.443Z,0
2022-12-12T19:40:59.180Z,0
2022-12-12T19:50:34.925Z,0
2022-12-12T20:00:10.805Z,0
2022-12-12T20:09:46.679Z,0
2022-12-12T20:19:22.707Z,0
2022-12-12T20:28:58.784Z,0
2022-12-12T20:38:34.771Z,0
2022-12-12T20:48:10.646Z,0
2022-12-12T20:57:46.426Z,0
2022-12-12T21:07:22.116Z,0
2022-12-12T21:16:58.307Z,0
2022-12-12T21:26:34.361Z,0
2022-12-12T21:36:10.373Z,0
2022-12-12T21:45:46.366Z,0
2022-12-12T21:55:22.276Z,0
2022-12-12T22:04:58.313Z,0
2022-12-12T22:14:34.320Z,0
2022-12-12T22:24:10.377Z,0
2022-12-12T22:33:47.996Z,0
2022-12-12T22:43:23.990Z,0
2022-12-12T22:52:58.074Z,0
2022-12-12T23:02:33.481Z,0
2022-12-12T23:12:09.453Z,0
2022-12-12T23:21:45.404Z,0
2022-12-12T23:31:21.305Z,0
2022-12-12T23:40:56.813Z,0
2022-12-12T23:50:32.407Z,0
